Time;durP1;ratioP1;P1;durP2;ratioP2;P2;SDS_P1;SDS_P2;PMS_P1;PMS_P2;Temp;Humidity;BMP_temperature;BMP_pressure;BME280_temperature;BME280_humidity;BME280_pressure;Samples;Min_cycle;Max_cycle;Signal;HPM_P1;HPM_P2
2023/01/15 00:00:51;;;;;;;12.55;1.50;;;;;;;;;;5095854;28;20035;-73
2023/01/15 00:03:18;;;;;;;12.63;1.55;;;;;;;;;;5105302;28;20059;-73
2023/01/15 00:05:44;;;;;;;9.77;1.58;;;;;;;;;;5110646;28;20415;-73
2023/01/15 00:08:10;;;;;;;13.10;1.95;;;;;;;;;;5104318;28;20043;-73
2023/01/15 00:10:36;;;;;;;9.88;1.75;;;;;;;;;;5110697;28;20051;-73
2023/01/15 00:13:02;;;;;;;9.68;1.90;;;;;;;;;;5104921;28;20036;-73
2023/01/15 00:15:28;;;;;;;8.90;1.95;;;;;;;;;;5095841;28;20047;-73
2023/01/15 00:17:54;;;;;;;12.07;1.60;;;;;;;;;;5105387;28;20050;-73
2023/01/15 00:20:20;;;;;;;12.30;2.10;;;;;;;;;;5107447;28;20059;-73
2023/01/15 00:22:46;;;;;;;10.77;1.98;;;;;;;;;;5115167;28;20145;-73
2023/01/15 00:27:57;;;;;;;11.65;1.90;;;;;;;;;;5106208;28;20048;-73
2023/01/15 00:30:23;;;;;;;11.82;1.85;;;;;;;;;;5113345;28;20051;-73
2023/01/15 00:32:50;;;;;;;8.15;1.60;;;;;;;;;;5117276;28;20043;-73
2023/01/15 00:35:17;;;;;;;12.05;1.90;;;;;;;;;;5117014;28;20047;-73
2023/01/15 00:37:44;;;;;;;11.20;1.90;;;;;;;;;;5117248;28;20042;-73
2023/01/15 00:40:10;;;;;;;8.98;1.60;;;;;;;;;;5114290;28;20401;-73
2023/01/15 00:42:36;;;;;;;9.00;1.63;;;;;;;;;;5117113;28;20039;-73
2023/01/15 00:45:08;;;;;;;9.38;1.80;;;;;;;;;;5108934;27;20048;-72
2023/01/15 00:47:35;;;;;;;12.13;1.77;;;;;;;;;;5098366;28;20055;-73
2023/01/15 00:50:01;;;;;;;12.68;1.85;;;;;;;;;;5105442;28;20543;-72
2023/01/15 00:52:27;;;;;;;10.38;1.80;;;;;;;;;;5117254;27;20051;-73
2023/01/15 00:54:53;;;;;;;12.32;2.20;;;;;;;;;;5111432;27;20043;-73
2023/01/15 00:57:19;;;;;;;14.60;2.03;;;;;;;;;;5108500;28;20418;-73
2023/01/15 00:59:45;;;;;;;14.13;2.13;;;;;;;;;;5100397;28;20040;-73
2023/01/15 01:02:11;;;;;;;10.70;1.77;;;;;;;;;;5107661;28;20667;-73
2023/01/15 01:04:37;;;;;;;12.63;1.83;;;;;;;;;;5122793;27;20048;-72
2023/01/15 01:07:03;;;;;;;12.60;2.13;;;;;;;;;;5099345;28;20108;-72
2023/01/15 01:09:29;;;;;;;11.00;2.13;;;;;;;;;;5099613;28;20051;-74
2023/01/15 01:11:55;;;;;;;15.60;2.22;;;;;;;;;;5095501;28;20043;-73
2023/01/15 01:14:22;;;;;;;13.88;1.92;;;;;;;;;;5106622;28;20035;-73
2023/01/15 01:16:48;;;;;;;15.63;2.00;;;;;;;;;;5105197;28;20048;-71
2023/01/15 01:19:18;;;;;;;15.20;2.00;;;;;;;;;;5109076;27;20036;-73
2023/01/15 01:21:45;;;;;;;9.75;1.98;;;;;;;;;;5117110;27;20044;-71
2023/01/15 01:24:12;;;;;;;13.52;2.00;;;;;;;;;;5109468;27;20088;-72
2023/01/15 01:26:38;;;;;;;13.50;1.75;;;;;;;;;;5114790;28;20039;-73
2023/01/15 01:29:05;;;;;;;13.57;1.90;;;;;;;;;;5116014;28;20398;-73
2023/01/15 01:31:31;;;;;;;12.18;1.77;;;;;;;;;;5116056;28;20039;-73
2023/01/15 01:33:58;;;;;;;13.38;1.75;;;;;;;;;;5116150;28;20550;-73
2023/01/15 01:36:28;;;;;;;13.90;2.33;;;;;;;;;;5106484;28;20470;-73
2023/01/15 01:38:54;;;;;;;13.38;2.65;;;;;;;;;;5113600;28;20044;-73
2023/01/15 01:41:20;;;;;;;13.85;2.03;;;;;;;;;;5114622;28;20055;-73
2023/01/15 01:44:06;;;;;;;12.93;2.00;;;;;;;;;;5116400;28;20447;-73
2023/01/15 01:46:33;;;;;;;19.50;2.30;;;;;;;;;;5116032;28;20119;-73
2023/01/15 01:49:04;;;;;;;14.57;2.17;;;;;;;;;;5116048;28;20513;-75
2023/01/15 01:51:32;;;;;;;13.73;1.80;;;;;;;;;;5115765;28;20043;-75
2023/01/15 01:53:59;;;;;;;15.70;2.35;;;;;;;;;;5111907;28;20118;-73
2023/01/15 01:56:25;;;;;;;15.25;2.38;;;;;;;;;;5115302;28;20040;-73
2023/01/15 01:58:53;;;;;;;15.70;2.38;;;;;;;;;;5114575;28;20131;-73
2023/01/15 02:01:22;;;;;;;16.15;2.50;;;;;;;;;;5101043;28;20078;-73
2023/01/15 02:03:48;;;;;;;10.70;1.80;;;;;;;;;;5108358;28;20047;-73
2023/01/15 02:06:14;;;;;;;21.85;3.40;;;;;;;;;;5114061;28;20500;-73
2023/01/15 02:08:41;;;;;;;12.95;2.00;;;;;;;;;;5114440;27;20173;-73
2023/01/15 02:11:08;;;;;;;14.00;2.03;;;;;;;;;;5113040;28;20036;-72
2023/01/15 02:13:37;;;;;;;12.65;1.80;;;;;;;;;;5105014;27;20044;-73
2023/01/15 02:16:10;;;;;;;18.65;2.25;;;;;;;;;;5093856;28;20533;-73
2023/01/15 02:18:52;;;;;;;16.13;2.03;;;;;;;;;;5102641;28;20439;-72
2023/01/15 02:21:30;;;;;;;12.57;2.10;;;;;;;;;;5094583;28;20051;-73
2023/01/15 02:23:56;;;;;;;13.35;2.00;;;;;;;;;;5102190;27;20043;-72
2023/01/15 02:26:30;;;;;;;11.48;1.88;;;;;;;;;;5107049;28;20511;-72
2023/01/15 02:28:57;;;;;;;12.10;2.25;;;;;;;;;;5114153;28;20051;-73
2023/01/15 02:31:29;;;;;;;12.50;1.90;;;;;;;;;;5094074;28;20047;-73
2023/01/15 02:34:18;;;;;;;17.70;2.20;;;;;;;;;;5106974;28;20040;-73
2023/01/15 02:36:47;;;;;;;15.73;2.20;;;;;;;;;;5105394;28;20050;-73
2023/01/15 02:39:15;;;;;;;14.50;2.53;;;;;;;;;;5106865;28;20047;-72
2023/01/15 02:41:46;;;;;;;14.85;2.20;;;;;;;;;;5101306;28;20127;-73
2023/01/15 02:44:12;;;;;;;;;;;;;;;;;;5114027;28;20054;-73
2023/01/15 02:46:38;;;;;;;14.32;2.28;;;;;;;;;;5114275;27;19919;-72
2023/01/15 02:49:06;;;;;;;15.55;2.13;;;;;;;;;;5113810;28;20039;-73
2023/01/15 02:51:38;;;;;;;9.75;1.75;;;;;;;;;;5094624;28;20498;-73
2023/01/15 02:54:06;;;;;;;14.13;2.22;;;;;;;;;;5109586;28;20040;-73
2023/01/15 02:56:34;;;;;;;15.15;2.40;;;;;;;;;;5112409;27;20036;-73
2023/01/15 02:59:04;;;;;;;15.32;2.33;;;;;;;;;;5112515;27;20071;-73
2023/01/15 03:01:42;;;;;;;13.70;2.15;;;;;;;;;;5104874;28;20048;-73
2023/01/15 03:04:41;;;;;;;14.23;2.15;;;;;;;;;;5093841;28;20098;-73
2023/01/15 03:07:07;;;;;;;16.92;2.42;;;;;;;;;;5073933;28;20047;-72
2023/01/15 03:09:33;;;;;;;17.33;2.50;;;;;;;;;;5115228;27;20043;-72
2023/01/15 03:12:04;;;;;;;17.40;2.30;;;;;;;;;;5101966;28;20040;-73
2023/01/15 03:14:35;;;;;;;14.23;2.00;;;;;;;;;;5096263;28;20486;-72
2023/01/15 03:17:09;;;;;;;13.82;2.22;;;;;;;;;;5108869;28;20106;-72
2023/01/15 03:19:40;;;;;;;13.18;2.50;;;;;;;;;;5103622;28;20417;-72
2023/01/15 03:22:09;;;;;;;15.15;2.45;;;;;;;;;;5099724;28;20031;-72
2023/01/15 03:24:53;;;;;;;12.80;2.30;;;;;;;;;;5111271;28;20048;-72
2023/01/15 03:27:20;;;;;;;17.10;2.30;;;;;;;;;;5101656;28;20047;-72
2023/01/15 03:30:00;;;;;;;15.50;2.53;;;;;;;;;;5104334;28;20452;-72
2023/01/15 03:32:26;;;;;;;15.10;2.50;;;;;;;;;;5097303;28;20127;-72
2023/01/15 03:34:54;;;;;;;12.38;2.13;;;;;;;;;;5105405;28;20036;-72
2023/01/15 03:37:21;;;;;;;11.48;1.90;;;;;;;;;;5109054;28;20054;-72
2023/01/15 03:39:48;;;;;;;17.63;2.60;;;;;;;;;;5116568;27;20130;-72
2023/01/15 03:42:26;;;;;;;13.40;2.20;;;;;;;;;;5101351;28;20036;-72
2023/01/15 03:45:05;;;;;;;17.70;2.30;;;;;;;;;;5104566;28;20413;-72
2023/01/15 03:47:55;;;;;;;17.38;2.25;;;;;;;;;;5109493;28;20067;-72
2023/01/15 03:50:28;;;;;;;14.05;2.13;;;;;;;;;;5102985;28;20047;-72
2023/01/15 03:53:06;;;;;;;15.10;2.33;;;;;;;;;;5112481;28;20599;-72
2023/01/15 03:55:52;;;;;;;13.52;2.42;;;;;;;;;;5111317;28;20087;-72
2023/01/15 03:58:26;;;;;;;14.98;2.33;;;;;;;;;;5098353;28;20122;-72
2023/01/15 04:00:54;;;;;;;12.85;1.90;;;;;;;;;;5097344;28;20044;-72
2023/01/15 04:03:21;;;;;;;17.10;2.20;;;;;;;;;;5110547;28;20062;-72
2023/01/15 04:05:50;;;;;;;15.00;2.10;;;;;;;;;;5109477;28;20401;-72
2023/01/15 04:08:16;;;;;;;15.18;2.30;;;;;;;;;;5111906;28;20050;-72
2023/01/15 04:10:56;;;;;;;15.13;2.15;;;;;;;;;;5114161;28;20532;-72
2023/01/15 04:13:22;;;;;;;21.90;2.90;;;;;;;;;;5096228;28;20055;-72
2023/01/15 04:15:48;;;;;;;20.63;2.88;;;;;;;;;;5112726;28;20383;-72
2023/01/15 04:18:14;;;;;;;15.55;2.30;;;;;;;;;;5096036;28;20096;-72
2023/01/15 04:20:40;;;;;;;10.27;2.10;;;;;;;;;;5117494;28;20039;-72
2023/01/15 04:23:06;;;;;;;17.45;2.50;;;;;;;;;;5109547;27;20047;-72
2023/01/15 04:25:32;;;;;;;13.50;2.25;;;;;;;;;;5099741;28;20071;-72
2023/01/15 04:27:58;;;;;;;15.27;2.58;;;;;;;;;;5104962;28;20055;-72
2023/01/15 04:30:24;;;;;;;14.68;2.35;;;;;;;;;;5097017;28;20048;-72
2023/01/15 04:32:51;;;;;;;15.52;1.95;;;;;;;;;;5103973;27;20043;-72
2023/01/15 04:35:18;;;;;;;14.07;2.50;;;;;;;;;;5112024;28;20524;-72
2023/01/15 04:37:44;;;;;;;18.23;2.22;;;;;;;;;;5104801;28;20032;-72
2023/01/15 04:44:05;;;;;;;15.07;2.72;;;;;;;;;;5105960;28;20035;-73
2023/01/15 04:45:45;;;;;;;16.48;2.28;;;;;;;;;;5094149;28;20413;-72
2023/01/15 04:48:11;;;;;;;18.90;2.88;;;;;;;;;;5111472;28;20489;-72
2023/01/15 04:50:37;;;;;;;14.20;2.40;;;;;;;;;;5111458;28;20550;-70
2023/01/15 04:53:04;;;;;;;13.35;2.20;;;;;;;;;;5096095;28;20039;-72
2023/01/15 04:55:30;;;;;;;15.65;2.13;;;;;;;;;;5103426;28;20047;-72
2023/01/15 04:57:56;;;;;;;18.83;2.22;;;;;;;;;;5108615;28;20040;-72
2023/01/15 05:00:22;;;;;;;17.08;2.45;;;;;;;;;;5103116;28;20043;-72
2023/01/15 05:02:48;;;;;;;17.38;2.40;;;;;;;;;;5118307;27;20047;-73
2023/01/15 05:05:15;;;;;;;17.45;2.30;;;;;;;;;;5104806;28;20417;-73
2023/01/15 05:07:41;;;;;;;14.15;2.35;;;;;;;;;;5103299;28;20104;-73
2023/01/15 05:10:07;;;;;;;13.73;2.53;;;;;;;;;;5103785;28;20035;-73
2023/01/15 05:12:33;;;;;;;17.15;2.20;;;;;;;;;;5095905;28;20142;-73
2023/01/15 05:14:59;;;;;;;19.13;2.38;;;;;;;;;;5095686;28;20052;-73
2023/01/15 05:17:25;;;;;;;14.65;2.40;;;;;;;;;;5108783;28;20052;-73
2023/01/15 05:19:51;;;;;;;13.20;2.88;;;;;;;;;;5106239;27;20043;-73
2023/01/15 05:22:17;;;;;;;15.43;2.25;;;;;;;;;;5109065;28;20036;-73
2023/01/15 05:24:44;;;;;;;16.70;2.20;;;;;;;;;;5100623;28;20043;-73
2023/01/15 05:27:10;;;;;;;12.32;2.08;;;;;;;;;;5111413;27;20493;-73
2023/01/15 05:29:36;;;;;;;13.82;2.10;;;;;;;;;;5111737;28;20043;-72
2023/01/15 05:32:02;;;;;;;13.85;2.33;;;;;;;;;;5098620;27;20406;-73
2023/01/15 05:34:28;;;;;;;16.85;2.38;;;;;;;;;;5103626;28;20047;-73
2023/01/15 05:36:54;;;;;;;14.23;2.67;;;;;;;;;;5107535;27;20048;-73
2023/01/15 05:39:20;;;;;;;12.75;2.42;;;;;;;;;;5114135;28;20048;-72
2023/01/15 05:41:49;;;;;;;15.60;2.85;;;;;;;;;;5110335;28;20036;-72
2023/01/15 05:44:33;;;;;;;14.07;2.35;;;;;;;;;;5108859;27;20063;-72
2023/01/15 05:47:01;;;;;;;11.95;1.85;;;;;;;;;;5109421;27;20051;-72
2023/01/15 05:49:30;;;;;;;18.23;2.40;;;;;;;;;;5110158;28;20047;-72
2023/01/15 05:51:56;;;;;;;16.52;2.45;;;;;;;;;;5119303;27;20074;-72
2023/01/15 05:54:24;;;;;;;13.57;2.70;;;;;;;;;;5108018;28;20122;-72
2023/01/15 05:56:50;;;;;;;18.45;2.78;;;;;;;;;;5096245;28;20398;-72
2023/01/15 05:59:17;;;;;;;17.40;2.80;;;;;;;;;;5115032;28;20052;-70
2023/01/15 06:01:43;;;;;;;14.65;2.78;;;;;;;;;;5119783;27;20067;-72
2023/01/15 06:04:10;;;;;;;14.13;2.30;;;;;;;;;;5113298;28;20527;-72
2023/01/15 06:06:36;;;;;;;16.05;3.15;;;;;;;;;;5113133;28;20503;-72
2023/01/15 06:09:03;;;;;;;19.05;3.13;;;;;;;;;;5114478;28;20044;-72
2023/01/15 06:11:29;;;;;;;15.57;2.53;;;;;;;;;;5113249;28;20190;-72
2023/01/15 06:13:55;;;;;;;16.83;2.95;;;;;;;;;;5112021;28;20489;-72
2023/01/15 06:16:22;;;;;;;15.10;3.10;;;;;;;;;;5101803;27;20047;-73
2023/01/15 06:18:48;;;;;;;19.25;2.42;;;;;;;;;;5106127;28;20064;-72
2023/01/15 06:21:14;;;;;;;12.05;2.30;;;;;;;;;;5093745;28;20052;-72
2023/01/15 06:23:41;;;;;;;15.82;2.05;;;;;;;;;;5100149;28;20043;-73
2023/01/15 06:26:17;;;;;;;17.25;2.97;;;;;;;;;;5108201;27;20047;-72
2023/01/15 06:28:43;;;;;;;12.18;2.40;;;;;;;;;;5112751;28;20050;-72
2023/01/15 06:31:10;;;;;;;15.32;2.63;;;;;;;;;;5112457;27;20059;-72
2023/01/15 06:33:37;;;;;;;11.18;2.30;;;;;;;;;;5104078;28;20113;-72
2023/01/15 06:36:07;;;;;;;13.45;2.47;;;;;;;;;;5109647;28;20099;-72
2023/01/15 06:38:33;;;;;;;12.40;1.83;;;;;;;;;;5110805;28;20405;-72
2023/01/15 06:41:00;;;;;;;12.93;1.85;;;;;;;;;;5113513;28;20092;-72
2023/01/15 06:48:55;;;;;;;17.10;2.10;;;;;;;;;;5099703;28;20049;-72
2023/01/15 06:51:21;;;;;;;14.15;2.75;;;;;;;;;;5110178;28;20048;-72
2023/01/15 06:53:48;;;;;;;14.48;2.30;;;;;;;;;;5103792;28;20054;-72
2023/01/15 06:56:14;;;;;;;16.20;2.10;;;;;;;;;;5112862;28;20085;-72
2023/01/15 06:58:41;;;;;;;10.70;1.70;;;;;;;;;;5110570;28;20514;-72
2023/01/15 07:01:10;;;;;;;14.38;2.30;;;;;;;;;;5104335;27;20130;-72
2023/01/15 07:03:37;;;;;;;12.88;1.52;;;;;;;;;;5101645;27;20059;-72
2023/01/15 07:06:07;;;;;;;11.50;2.08;;;;;;;;;;5113548;27;20047;-72
2023/01/15 07:08:33;;;;;;;10.27;1.70;;;;;;;;;;5115837;27;20040;-72
2023/01/15 07:11:06;;;;;;;14.23;2.13;;;;;;;;;;5108963;28;20509;-73
2023/01/15 07:13:33;;;;;;;16.55;2.35;;;;;;;;;;5102876;28;20036;-72
2023/01/15 07:16:00;;;;;;;13.00;2.20;;;;;;;;;;5110689;28;20048;-72
2023/01/15 07:18:26;;;;;;;15.40;2.42;;;;;;;;;;5104702;28;20044;-72
2023/01/15 07:20:56;;;;;;;14.75;2.17;;;;;;;;;;5100891;28;20101;-73
2023/01/15 07:23:23;;;;;;;14.57;2.40;;;;;;;;;;5109086;28;20036;-72
2023/01/15 07:25:50;;;;;;;12.40;1.92;;;;;;;;;;5101624;27;20040;-73
2023/01/15 07:28:16;;;;;;;14.80;2.28;;;;;;;;;;5110152;28;20035;-73
2023/01/15 07:30:42;;;;;;;12.13;1.98;;;;;;;;;;5111294;28;20048;-73
2023/01/15 07:33:08;;;;;;;12.38;1.77;;;;;;;;;;5099891;28;20068;-73
2023/01/15 07:35:35;;;;;;;12.45;2.10;;;;;;;;;;5104875;28;20036;-73
2023/01/15 07:38:02;;;;;;;10.35;2.08;;;;;;;;;;5102579;28;20488;-73
2023/01/15 07:40:28;;;;;;;19.50;2.30;;;;;;;;;;5103627;28;20059;-73
2023/01/15 07:51:10;;;;;;;9.85;1.70;;;;;;;;;;5103795;28;20059;-73
2023/01/15 07:53:36;;;;;;;11.60;1.65;;;;;;;;;;5110279;28;20047;-73
2023/01/15 07:56:02;;;;;;;13.27;2.53;;;;;;;;;;5105820;28;20044;-73
2023/01/15 07:58:28;;;;;;;15.88;2.20;;;;;;;;;;5113028;27;20486;-73
2023/01/15 08:00:54;;;;;;;16.15;2.25;;;;;;;;;;5103919;28;21048;-73
2023/01/15 08:03:20;;;;;;;14.95;2.00;;;;;;;;;;5100244;28;20091;-73
2023/01/15 08:05:46;;;;;;;14.27;2.10;;;;;;;;;;5111833;28;20059;-73
2023/01/15 08:08:15;;;;;;;14.60;1.90;;;;;;;;;;5102922;28;20546;-73
2023/01/15 08:16:11;;;;;;;11.98;1.90;;;;;;;;;;5106463;28;20071;-73
2023/01/15 08:18:37;;;;;;;9.00;1.80;;;;;;;;;;5105592;28;20033;-73
2023/01/15 08:21:03;;;;;;;15.52;2.47;;;;;;;;;;5111594;28;20051;-73
2023/01/15 08:23:30;;;;;;;12.80;2.22;;;;;;;;;;5110065;28;20070;-73
2023/01/15 08:25:59;;;;;;;12.23;2.38;;;;;;;;;;5104424;28;20047;-73
2023/01/15 08:28:25;;;;;;;16.17;2.67;;;;;;;;;;5110287;28;20108;-73
2023/01/15 08:30:52;;;;;;;17.80;3.50;;;;;;;;;;5110942;28;20100;-73
2023/01/15 08:33:18;;;;;;;17.05;3.10;;;;;;;;;;5109001;28;20042;-75
2023/01/15 08:35:44;;;;;;;19.00;3.50;;;;;;;;;;5111106;28;20050;-77
2023/01/15 08:38:10;;;;;;;16.25;3.10;;;;;;;;;;5100579;28;20458;-73
2023/01/15 08:40:57;;;;;;;16.63;3.30;;;;;;;;;;5109183;28;20055;-73
2023/01/15 08:43:22;;;;;;;18.77;3.92;;;;;;;;;;5105163;28;20113;-73
2023/01/15 08:45:48;;;;;;;13.38;3.17;;;;;;;;;;5110486;28;20048;-73
2023/01/15 08:48:14;;;;;;;13.55;3.08;;;;;;;;;;5103447;28;20040;-73
2023/01/15 08:50:40;;;;;;;15.02;3.58;;;;;;;;;;5105137;28;20055;-73
2023/01/15 08:53:07;;;;;;;19.27;3.40;;;;;;;;;;5110519;28;20044;-73
2023/01/15 08:55:33;;;;;;;15.90;4.68;;;;;;;;;;5103215;27;20470;-73
2023/01/15 08:57:59;;;;;;;19.10;5.30;;;;;;;;;;5127766;27;20401;-73
2023/01/15 09:00:25;;;;;;;15.75;4.40;;;;;;;;;;5125271;27;20404;-73
2023/01/15 09:02:51;;;;;;;14.70;3.40;;;;;;;;;;5116267;27;20168;-73
2023/01/15 09:05:17;;;;;;;17.35;2.67;;;;;;;;;;5115830;28;20051;-72
2023/01/15 09:07:44;;;;;;;14.88;2.55;;;;;;;;;;5114839;28;20122;-72
2023/01/15 09:10:10;;;;;;;12.70;3.42;;;;;;;;;;5125101;27;20047;-73
2023/01/15 09:12:36;;;;;;;9.55;2.22;;;;;;;;;;5136625;27;20051;-73
2023/01/15 09:15:03;;;;;;;16.38;4.00;;;;;;;;;;5136175;27;20058;-72
2023/01/15 09:17:29;;;;;;;15.93;3.30;;;;;;;;;;5113917;27;20104;-72
2023/01/15 09:19:55;;;;;;;9.63;2.22;;;;;;;;;;5114820;27;20133;-72
2023/01/15 09:22:21;;;;;;;13.50;2.30;;;;;;;;;;5113615;28;20054;-73
2023/01/15 09:24:47;;;;;;;7.18;1.65;;;;;;;;;;5105330;28;20059;-73
2023/01/15 09:27:13;;;;;;;10.38;1.80;;;;;;;;;;5102345;28;20035;-70
2023/01/15 09:29:39;;;;;;;9.95;1.40;;;;;;;;;;5101271;28;20520;-72
2023/01/15 09:32:07;;;;;;;7.13;1.15;;;;;;;;;;5114710;28;20504;-72
2023/01/15 09:34:33;;;;;;;4.72;1.05;;;;;;;;;;5114412;28;20039;-73
2023/01/15 09:36:59;;;;;;;5.57;1.10;;;;;;;;;;5114140;28;20051;-73
2023/01/15 09:39:25;;;;;;;8.48;1.25;;;;;;;;;;5113951;28;20055;-73
2023/01/15 09:42:19;;;;;;;6.18;1.27;;;;;;;;;;5114150;28;20048;-73
2023/01/15 09:44:48;;;;;;;4.32;1.00;;;;;;;;;;5105210;28;20055;-73
2023/01/15 09:47:31;;;;;;;6.47;1.02;;;;;;;;;;5107084;28;20035;-74
2023/01/15 09:50:03;;;;;;;6.50;1.35;;;;;;;;;;5107980;28;20036;-73
2023/01/15 09:52:42;;;;;;;8.40;1.58;;;;;;;;;;5105426;27;20052;-73
2023/01/15 09:55:20;;;;;;;7.55;1.60;;;;;;;;;;5105180;28;20043;-72
2023/01/15 09:57:49;;;;;;;7.32;1.50;;;;;;;;;;5097126;28;20046;-72
2023/01/15 10:00:18;;;;;;;7.90;1.60;;;;;;;;;;5098513;28;20127;-74
2023/01/15 10:02:53;;;;;;;9.02;1.60;;;;;;;;;;5099908;27;20060;-74
2023/01/15 10:05:23;;;;;;;8.30;1.52;;;;;;;;;;5109904;28;20062;-73
2023/01/15 10:07:58;;;;;;;7.25;1.60;;;;;;;;;;5110333;27;20486;-74
2023/01/15 10:10:32;;;;;;;11.18;1.83;;;;;;;;;;5113262;28;20185;-73
2023/01/15 10:13:00;;;;;;;10.65;2.15;;;;;;;;;;5106478;27;20119;-74
2023/01/15 10:15:43;;;;;;;12.27;2.00;;;;;;;;;;5111344;28;20044;-73
2023/01/15 10:18:18;;;;;;;10.50;2.22;;;;;;;;;;5111540;28;20039;-74
2023/01/15 10:20:53;;;;;;;12.05;2.03;;;;;;;;;;5116113;27;20090;-73
2023/01/15 10:23:23;;;;;;;10.95;2.15;;;;;;;;;;5111667;28;20076;-74
2023/01/15 10:25:51;;;;;;;12.35;1.92;;;;;;;;;;5110056;28;20075;-74
2023/01/15 10:28:23;;;;;;;11.10;1.90;;;;;;;;;;5104523;28;20383;-75
2023/01/15 10:30:52;;;;;;;11.32;1.70;;;;;;;;;;5111083;27;20044;-74
2023/01/15 10:33:25;;;;;;;6.55;1.30;;;;;;;;;;5102051;28;20047;-74
2023/01/15 10:35:58;;;;;;;9.77;2.15;;;;;;;;;;5115398;27;20398;-72
2023/01/15 10:38:36;;;;;;;10.10;1.80;;;;;;;;;;5113449;28;20114;-72
2023/01/15 10:41:14;;;;;;;11.23;1.90;;;;;;;;;;5109661;28;20043;-74
2023/01/15 10:43:43;;;;;;;11.25;1.73;;;;;;;;;;5112709;28;20044;-74
2023/01/15 10:46:13;;;;;;;13.52;2.17;;;;;;;;;;5121478;27;20067;-74
2023/01/15 10:48:45;;;;;;;14.77;1.98;;;;;;;;;;5107514;27;20050;-75
2023/01/15 10:51:20;;;;;;;16.73;3.42;;;;;;;;;;5111290;28;20050;-75
2023/01/15 10:53:46;;;;;;;13.45;2.00;;;;;;;;;;5109907;28;20098;-75
2023/01/15 10:56:15;;;;;;;10.65;1.67;;;;;;;;;;5112096;28;20043;-75
2023/01/15 10:58:45;;;;;;;17.30;2.40;;;;;;;;;;5111798;28;20137;-75
2023/01/15 11:01:14;;;;;;;12.93;1.88;;;;;;;;;;5106626;28;20044;-75
2023/01/15 11:03:42;;;;;;;12.00;2.05;;;;;;;;;;5113624;28;20562;-75
2023/01/15 11:06:13;;;;;;;11.82;2.25;;;;;;;;;;5111077;28;20043;-75
2023/01/15 11:08:39;;;;;;;;;;;;;;;;;;5113143;28;20533;-75
2023/01/15 11:19:42;;;;;;;14.35;2.30;;;;;;;;;;5116560;27;20043;-75
2023/01/15 11:22:18;;;;;;;16.23;2.63;;;;;;;;;;5112052;28;20050;-74
2023/01/15 11:24:47;;;;;;;14.52;2.25;;;;;;;;;;5099153;28;20454;-75
2023/01/15 11:27:17;;;;;;;12.80;2.22;;;;;;;;;;5107991;27;20382;-75
2023/01/15 11:29:44;;;;;;;19.63;2.20;;;;;;;;;;5112519;28;20047;-75
2023/01/15 11:32:19;;;;;;;15.93;2.20;;;;;;;;;;5107088;28;20097;-72
2023/01/15 11:34:52;;;;;;;13.15;2.00;;;;;;;;;;5100517;28;20043;-75
2023/01/15 11:37:18;;;;;;;14.55;2.90;;;;;;;;;;5120434;27;20047;-72
2023/01/15 11:39:51;;;;;;;13.77;3.30;;;;;;;;;;5108218;28;20126;-74
2023/01/15 11:50:45;;;;;;;;;;;;;;;;;;5123315;27;20039;-74
2023/01/15 11:53:17;;;;;;;16.73;3.25;;;;;;;;;;5109939;28;20277;-74
2023/01/15 11:55:51;;;;;;;12.02;2.88;;;;;;;;;;5112114;28;20055;-74
2023/01/15 11:58:17;;;;;;;13.23;2.33;;;;;;;;;;5108439;28;20566;-74
2023/01/15 12:00:44;;;;;;;15.13;2.50;;;;;;;;;;5109635;28;20106;-75
2023/01/15 12:03:16;;;;;;;16.15;2.78;;;;;;;;;;5105112;27;20064;-72
2023/01/15 12:05:47;;;;;;;16.13;2.95;;;;;;;;;;5110565;28;20059;-72
2023/01/15 12:08:23;;;;;;;15.60;3.50;;;;;;;;;;5105930;28;20397;-72
2023/01/15 12:11:06;;;;;;;10.70;2.30;;;;;;;;;;5103583;28;20050;-72
2023/01/15 12:13:44;;;;;;;14.10;2.60;;;;;;;;;;5107651;28;20058;-72
2023/01/15 12:16:13;;;;;;;12.25;2.55;;;;;;;;;;5110758;28;20054;-72
2023/01/15 12:18:42;;;;;;;12.48;2.47;;;;;;;;;;5108191;28;20044;-72
2023/01/15 12:21:14;;;;;;;12.18;2.58;;;;;;;;;;5111520;28;20032;-72
2023/01/15 12:23:56;;;;;;;14.93;2.97;;;;;;;;;;5109698;28;20489;-73
2023/01/15 12:26:22;;;;;;;;;;;;;;;;;;5115079;28;20045;-72
2023/01/15 12:28:58;;;;;;;14.77;2.83;;;;;;;;;;5115954;28;19920;-72
2023/01/15 12:31:32;;;;;;;13.77;3.47;;;;;;;;;;5115169;27;20050;-72
2023/01/15 12:34:21;;;;;;;15.77;3.50;;;;;;;;;;5115088;28;20058;-72
2023/01/15 12:36:51;;;;;;;11.45;2.28;;;;;;;;;;5097631;27;20071;-72
2023/01/15 12:39:19;;;;;;;11.32;2.30;;;;;;;;;;5105276;28;20047;-72
2023/01/15 12:47:47;;;;;;;9.05;1.90;;;;;;;;;;5110801;28;20074;-73
2023/01/15 12:50:33;;;;;;;12.35;1.92;;;;;;;;;;5124358;27;20091;-72
2023/01/15 12:53:03;;;;;;;10.75;1.75;;;;;;;;;;5105986;28;20096;-72
2023/01/15 12:55:31;;;;;;;9.27;1.98;;;;;;;;;;5116407;28;20461;-73
2023/01/15 12:57:59;;;;;;;12.88;2.10;;;;;;;;;;5115023;27;20043;-72
2023/01/15 13:00:30;;;;;;;18.25;2.33;;;;;;;;;;5115929;28;20044;-72
2023/01/15 13:03:00;;;;;;;14.25;2.08;;;;;;;;;;5115660;28;20051;-73
2023/01/15 13:05:31;;;;;;;17.13;2.25;;;;;;;;;;5109677;28;20047;-73
2023/01/15 13:08:06;;;;;;;12.73;1.95;;;;;;;;;;5095614;28;20048;-72
2023/01/15 13:10:35;;;;;;;11.05;2.00;;;;;;;;;;5098651;28;20042;-72
2023/01/15 13:13:15;;;;;;;11.95;1.98;;;;;;;;;;5115374;28;20102;-73
2023/01/15 13:15:49;;;;;;;13.18;2.10;;;;;;;;;;5115747;28;20058;-73
2023/01/15 13:18:25;;;;;;;11.55;2.55;;;;;;;;;;5115981;28;20056;-73
2023/01/15 13:20:54;;;;;;;12.30;1.90;;;;;;;;;;5112806;28;20701;-73
2023/01/15 13:23:30;;;;;;;15.23;2.60;;;;;;;;;;5112595;28;20092;-73
2023/01/15 13:26:02;;;;;;;11.48;2.17;;;;;;;;;;5114578;28;20066;-73
2023/01/15 13:28:49;;;;;;;12.35;2.10;;;;;;;;;;5113681;28;20528;-72
2023/01/15 13:31:34;;;;;;;12.30;2.42;;;;;;;;;;5113356;28;20058;-73
2023/01/15 13:34:01;;;;;;;10.88;1.80;;;;;;;;;;5103798;28;20031;-72
2023/01/15 13:36:40;;;;;;;7.32;1.90;;;;;;;;;;5111875;28;20549;-73
2023/01/15 13:39:07;;;;;;;8.63;2.20;;;;;;;;;;5113057;28;20633;-74
2023/01/15 13:44:23;;;;;;;16.30;2.90;;;;;;;;;;5113889;27;20064;-73
2023/01/15 13:47:03;;;;;;;11.38;2.53;;;;;;;;;;5118691;27;20397;-73
2023/01/15 13:49:52;;;;;;;10.02;1.80;;;;;;;;;;5112218;28;20488;-73
2023/01/15 13:52:32;;;;;;;9.38;1.83;;;;;;;;;;5107529;27;21633;-73
2023/01/15 13:55:00;;;;;;;10.02;2.13;;;;;;;;;;5111216;28;20035;-73
2023/01/15 13:57:37;;;;;;;11.57;2.33;;;;;;;;;;5108918;28;20047;-73
2023/01/15 14:00:05;;;;;;;15.27;2.72;;;;;;;;;;5108652;28;20131;-73
2023/01/15 14:02:38;;;;;;;13.88;2.45;;;;;;;;;;5106129;27;20047;-73
2023/01/15 14:05:25;;;;;;;12.18;2.20;;;;;;;;;;5094387;27;20093;-72
2023/01/15 14:07:51;;;;;;;16.35;2.60;;;;;;;;;;5095905;27;20044;-72
2023/01/15 14:10:20;;;;;;;15.15;2.42;;;;;;;;;;5092638;28;21104;-73
2023/01/15 14:12:56;;;;;;;14.02;2.50;;;;;;;;;;5093609;28;20505;-72
2023/01/15 14:15:27;;;;;;;12.73;2.25;;;;;;;;;;5093799;28;20056;-73
2023/01/15 14:17:53;;;;;;;;;;;;;;;;;;5095699;27;20035;-72
2023/01/15 14:20:19;;;;;;;11.23;1.80;;;;;;;;;;5095988;28;19965;-70
2023/01/15 14:22:45;;;;;;;13.80;2.22;;;;;;;;;;5094737;27;20051;-72
2023/01/15 14:25:14;;;;;;;11.55;1.95;;;;;;;;;;5097539;28;20383;-73
2023/01/15 14:27:42;;;;;;;5.72;1.27;;;;;;;;;;5100324;27;20039;-73
2023/01/15 14:30:13;;;;;;;6.82;1.17;;;;;;;;;;5111107;27;21043;-73
2023/01/15 14:32:47;;;;;;;4.00;0.80;;;;;;;;;;5106449;27;20553;-73
2023/01/15 14:35:18;;;;;;;7.75;0.80;;;;;;;;;;5113190;27;20047;-73
2023/01/15 14:37:50;;;;;;;3.88;0.70;;;;;;;;;;5112378;27;20402;-73
2023/01/15 14:40:24;;;;;;;4.32;0.90;;;;;;;;;;5112565;27;20494;-74
2023/01/15 14:43:00;;;;;;;5.18;1.45;;;;;;;;;;5125421;27;20043;-73
2023/01/15 14:45:29;;;;;;;6.15;1.85;;;;;;;;;;5117891;27;20089;-73
2023/01/15 14:47:56;;;;;;;7.60;2.13;;;;;;;;;;5108854;27;20048;-73
2023/01/15 14:50:29;;;;;;;11.20;2.40;;;;;;;;;;5112645;28;20047;-74
2023/01/15 14:52:59;;;;;;;5.65;1.17;;;;;;;;;;5113389;28;20118;-74
2023/01/15 14:55:25;;;;;;;6.07;0.95;;;;;;;;;;5114784;28;20039;-73
2023/01/15 14:58:14;;;;;;;6.65;1.02;;;;;;;;;;5110188;27;20036;-73
2023/01/15 15:00:43;;;;;;;5.00;1.10;;;;;;;;;;5112542;28;20144;-73
2023/01/15 15:03:14;;;;;;;8.05;1.45;;;;;;;;;;5112546;28;20060;-73
2023/01/15 15:05:41;;;;;;;8.02;1.48;;;;;;;;;;5113620;28;20400;-72
2023/01/15 15:08:10;;;;;;;5.35;1.30;;;;;;;;;;5114097;28;20044;-73
2023/01/15 15:10:39;;;;;;;6.10;1.45;;;;;;;;;;5110972;28;20074;-76
2023/01/15 15:13:06;;;;;;;6.63;1.42;;;;;;;;;;5093986;28;20457;-75
2023/01/15 15:15:32;;;;;;;7.30;1.35;;;;;;;;;;5097996;28;20043;-74
2023/01/15 15:18:07;;;;;;;6.63;1.60;;;;;;;;;;5102574;27;20043;-72
2023/01/15 15:20:42;;;;;;;5.78;1.30;;;;;;;;;;5093492;27;20063;-72
2023/01/15 15:23:27;;;;;;;9.05;1.33;;;;;;;;;;5099547;28;20378;-73
2023/01/15 15:26:01;;;;;;;5.68;1.25;;;;;;;;;;5092680;28;20123;-73
2023/01/15 15:28:27;;;;;;;9.15;1.60;;;;;;;;;;5093149;27;20052;-73
2023/01/15 15:30:56;;;;;;;8.80;1.38;;;;;;;;;;5092940;28;20048;-73
2023/01/15 15:33:22;;;;;;;6.85;1.45;;;;;;;;;;5093006;27;20044;-72
2023/01/15 15:35:52;;;;;;;9.13;2.42;;;;;;;;;;5105952;27;20067;-73
2023/01/15 15:38:19;;;;;;;7.65;1.70;;;;;;;;;;5103601;28;20043;-73